WAT5327 KJAC-KDEN
Flight info
| Callsign | WAT5327 |
|---|---|
| Flight time | 1h 1m |
| Altitude | 39000 |
| Route | KICNE TOFUU FLATI5 |
| Aircraft | A319/M-SDE3FGHIRWY/LB1 |
Departure
| Time | 2026-05-08 01:41 |
|---|---|
| Airport | Jackson Hole Airport (KJAC) |
Arrival
| Time | 2026-05-08 02:43 |
|---|---|
| Airport | Denver International Airport (KDEN) |
| Time | Latitude | Longitude | Altitude | Speed | Heading |
|---|---|---|---|---|---|
| 2026-05-08 01:31 | 43.60347 | -110.73703 | 6431 ft | 0 kts | 107° |
| 2026-05-08 01:36 | 43.60347 | -110.73704 | 6431 ft | 0 kts | 107° |
| 2026-05-08 01:37 | 43.60352 | -110.73724 | 6431 ft | 3 kts | 107° |
| 2026-05-08 01:37 | 43.60357 | -110.73748 | 6431 ft | 3 kts | 143° |
| 2026-05-08 01:37 | 43.60372 | -110.73753 | 6431 ft | 0 kts | 206° |
| 2026-05-08 01:38 | 43.60349 | -110.73770 | 6431 ft | 10 kts | 207° |
| 2026-05-08 01:39 | 43.60249 | -110.73846 | 6425 ft | 23 kts | 201° |
| 2026-05-08 01:39 | 43.60073 | -110.73942 | 6421 ft | 30 kts | 201° |
| 2026-05-08 01:39 | 43.59946 | -110.74007 | 6418 ft | 18 kts | 200° |
| 2026-05-08 01:39 | 43.59921 | -110.74111 | 6420 ft | 18 kts | 292° |
| 2026-05-08 01:40 | 43.59999 | -110.74135 | 6420 ft | 7 kts | 19° |
| 2026-05-08 01:40 | 43.60001 | -110.74134 | 6420 ft | 0 kts | 19° |
| 2026-05-08 01:40 | 43.60026 | -110.74122 | 6421 ft | 26 kts | 19° |
| 2026-05-08 01:40 | 43.60487 | -110.73899 | 6432 ft | 110 kts | 19° |
| 2026-05-08 01:41 | 43.61412 | -110.73460 | 6539 ft | 164 kts | 18° |
| 2026-05-08 01:41 | 43.62453 | -110.72918 | 7452 ft | 157 kts | 16° |
| 2026-05-08 01:41 | 43.63475 | -110.72415 | 8214 ft | 157 kts | 19° |
| 2026-05-08 01:41 | 43.64529 | -110.71905 | 8664 ft | 168 kts | 19° |
| 2026-05-08 01:42 | 43.65706 | -110.71340 | 8894 ft | 190 kts | 16° |
| 2026-05-08 01:42 | 43.67022 | -110.70702 | 9176 ft | 210 kts | 17° |
| 2026-05-08 01:42 | 43.68304 | -110.69494 | 9477 ft | 237 kts | 39° |
| 2026-05-08 01:42 | 43.69510 | -110.67780 | 9858 ft | 259 kts | 43° |
| 2026-05-08 01:43 | 43.70765 | -110.65846 | 10303 ft | 282 kts | 44° |
| 2026-05-08 01:43 | 43.72354 | -110.64118 | 10692 ft | 301 kts | 27° |
| 2026-05-08 01:43 | 43.74251 | -110.62658 | 11118 ft | 322 kts | 24° |
| 2026-05-08 01:43 | 43.76263 | -110.61191 | 11792 ft | 331 kts | 23° |
| 2026-05-08 01:44 | 43.78326 | -110.59711 | 12644 ft | 335 kts | 23° |
| 2026-05-08 01:44 | 43.80402 | -110.58220 | 13513 ft | 339 kts | 24° |
| 2026-05-08 01:44 | 43.82306 | -110.56304 | 14371 ft | 346 kts | 40° |
| 2026-05-08 01:44 | 43.83788 | -110.53626 | 15152 ft | 357 kts | 57° |
| 2026-05-08 01:45 | 43.84659 | -110.50305 | 15895 ft | 369 kts | 76° |
| 2026-05-08 01:45 | 43.84760 | -110.46764 | 16605 ft | 379 kts | 95° |
| 2026-05-08 01:45 | 43.84274 | -110.43144 | 17323 ft | 385 kts | 100° |
| 2026-05-08 01:45 | 43.83728 | -110.39485 | 18039 ft | 390 kts | 101° |
| 2026-05-08 01:46 | 43.82922 | -110.35872 | 18676 ft | 396 kts | 112° |
| 2026-05-08 01:46 | 43.81618 | -110.32482 | 19294 ft | 402 kts | 123° |
| 2026-05-08 01:46 | 43.79862 | -110.29453 | 19909 ft | 407 kts | 135° |
| 2026-05-08 01:46 | 43.77849 | -110.26660 | 20514 ft | 412 kts | 135° |
| 2026-05-08 01:47 | 43.76503 | -110.24797 | 20899 ft | 416 kts | 135° |
| 2026-05-08 01:47 | 43.73743 | -110.20969 | 21627 ft | 424 kts | 134° |
| 2026-05-08 01:47 | 43.72356 | -110.19046 | 21996 ft | 428 kts | 134° |
| 2026-05-08 01:48 | 43.68095 | -110.13142 | 23097 ft | 439 kts | 134° |
| 2026-05-08 01:48 | 43.65210 | -110.09154 | 23770 ft | 446 kts | 134° |
| 2026-05-08 01:48 | 43.63722 | -110.07104 | 24144 ft | 449 kts | 134° |
| 2026-05-08 01:48 | 43.61524 | -110.04085 | 24676 ft | 452 kts | 134° |
| 2026-05-08 01:49 | 43.59284 | -110.01014 | 25163 ft | 456 kts | 134° |
| 2026-05-08 01:49 | 43.57020 | -109.97910 | 25618 ft | 461 kts | 134° |
| 2026-05-08 01:49 | 43.54703 | -109.94732 | 26102 ft | 466 kts | 134° |
| 2026-05-08 01:49 | 43.52394 | -109.91569 | 26554 ft | 470 kts | 134° |
| 2026-05-08 01:50 | 43.50091 | -109.88421 | 26997 ft | 475 kts | 133° |
| 2026-05-08 01:50 | 43.47740 | -109.85205 | 27447 ft | 479 kts | 133° |
| 2026-05-08 01:50 | 43.45363 | -109.81958 | 27906 ft | 483 kts | 133° |
| 2026-05-08 01:50 | 43.42969 | -109.78690 | 28356 ft | 487 kts | 133° |
| 2026-05-08 01:51 | 43.40556 | -109.75398 | 28846 ft | 490 kts | 133° |
| 2026-05-08 01:51 | 43.38127 | -109.72095 | 29310 ft | 494 kts | 133° |
| 2026-05-08 01:51 | 43.35669 | -109.68765 | 29764 ft | 498 kts | 133° |
| 2026-05-08 01:51 | 43.33187 | -109.65407 | 30105 ft | 502 kts | 133° |
| 2026-05-08 01:52 | 43.30687 | -109.62026 | 30486 ft | 506 kts | 133° |
| 2026-05-08 01:52 | 43.28172 | -109.58625 | 30827 ft | 508 kts | 133° |
| 2026-05-08 01:52 | 43.25650 | -109.55213 | 31257 ft | 510 kts | 133° |
| 2026-05-08 01:52 | 43.23119 | -109.51786 | 31636 ft | 512 kts | 133° |
| 2026-05-08 01:53 | 43.20575 | -109.48348 | 31995 ft | 516 kts | 133° |
| 2026-05-08 01:53 | 43.18008 | -109.44883 | 32352 ft | 519 kts | 133° |
| 2026-05-08 01:53 | 43.15452 | -109.41442 | 32684 ft | 523 kts | 133° |
| 2026-05-08 01:53 | 43.12849 | -109.37954 | 33093 ft | 523 kts | 133° |
| 2026-05-08 01:54 | 43.10249 | -109.34477 | 33590 ft | 523 kts | 132° |
| 2026-05-08 01:54 | 43.07647 | -109.30993 | 34104 ft | 522 kts | 132° |
| 2026-05-08 01:54 | 43.05056 | -109.27522 | 34585 ft | 521 kts | 133° |
| 2026-05-08 01:54 | 43.02464 | -109.24057 | 35047 ft | 520 kts | 133° |
| 2026-05-08 01:55 | 42.99879 | -109.20605 | 35464 ft | 519 kts | 133° |
| 2026-05-08 01:55 | 42.97299 | -109.17170 | 35920 ft | 517 kts | 133° |
| 2026-05-08 01:55 | 42.94734 | -109.13758 | 36425 ft | 514 kts | 133° |
| 2026-05-08 01:55 | 42.92173 | -109.10347 | 36920 ft | 512 kts | 134° |
| 2026-05-08 01:56 | 42.89632 | -109.06970 | 37421 ft | 509 kts | 134° |
| 2026-05-08 01:56 | 42.87097 | -109.03606 | 37896 ft | 507 kts | 134° |
| 2026-05-08 01:56 | 42.84571 | -109.00254 | 38376 ft | 505 kts | 134° |
| 2026-05-08 01:56 | 42.82063 | -108.96934 | 38729 ft | 503 kts | 134° |
| 2026-05-08 01:57 | 42.79552 | -108.93616 | 38869 ft | 501 kts | 134° |
| 2026-05-08 01:57 | 42.77054 | -108.90319 | 38919 ft | 500 kts | 134° |
| 2026-05-08 01:57 | 42.72102 | -108.83795 | 38900 ft | 498 kts | 134° |
| 2026-05-08 01:58 | 42.67119 | -108.77244 | 38928 ft | 498 kts | 135° |
| 2026-05-08 01:58 | 42.62161 | -108.70733 | 38948 ft | 494 kts | 135° |
| 2026-05-08 01:59 | 42.57224 | -108.64267 | 38929 ft | 493 kts | 135° |
| 2026-05-08 01:59 | 42.52277 | -108.57812 | 38906 ft | 493 kts | 135° |
| 2026-05-08 02:00 | 42.47333 | -108.51372 | 38872 ft | 494 kts | 135° |
| 2026-05-08 02:00 | 42.42380 | -108.44927 | 38873 ft | 494 kts | 135° |
| 2026-05-08 02:01 | 42.37420 | -108.38490 | 38916 ft | 493 kts | 136° |
| 2026-05-08 02:01 | 42.32466 | -108.32088 | 38888 ft | 492 kts | 136° |
| 2026-05-08 02:02 | 42.27518 | -108.25701 | 38889 ft | 492 kts | 136° |
| 2026-05-08 02:02 | 42.22576 | -108.19331 | 38891 ft | 491 kts | 136° |
| 2026-05-08 02:03 | 42.17629 | -108.12983 | 38887 ft | 491 kts | 136° |
| 2026-05-08 02:03 | 42.12712 | -108.06682 | 38891 ft | 490 kts | 136° |
| 2026-05-08 02:04 | 42.07774 | -108.00357 | 38900 ft | 490 kts | 136° |
| 2026-05-08 02:04 | 42.02833 | -107.94050 | 38901 ft | 489 kts | 136° |
| 2026-05-08 02:05 | 41.97885 | -107.87761 | 38890 ft | 489 kts | 136° |
| 2026-05-08 02:05 | 41.92949 | -107.81483 | 38895 ft | 488 kts | 136° |
| 2026-05-08 02:06 | 41.88012 | -107.75227 | 38898 ft | 488 kts | 136° |
| 2026-05-08 02:06 | 41.83059 | -107.68976 | 38903 ft | 488 kts | 137° |
| 2026-05-08 02:07 | 41.78251 | -107.62543 | 38924 ft | 489 kts | 133° |
| 2026-05-08 02:07 | 41.73762 | -107.55704 | 38958 ft | 489 kts | 130° |
| 2026-05-08 02:08 | 41.69313 | -107.48797 | 38966 ft | 489 kts | 131° |
| 2026-05-08 02:08 | 41.64790 | -107.42000 | 38975 ft | 490 kts | 132° |
| 2026-05-08 02:09 | 41.60207 | -107.35258 | 38986 ft | 490 kts | 133° |
| 2026-05-08 02:09 | 41.55621 | -107.28516 | 38974 ft | 491 kts | 132° |
| 2026-05-08 02:10 | 41.51040 | -107.21752 | 38965 ft | 491 kts | 132° |
| 2026-05-08 02:10 | 41.46458 | -107.15001 | 38942 ft | 491 kts | 132° |
| 2026-05-08 02:11 | 41.41860 | -107.08267 | 38945 ft | 491 kts | 133° |
| 2026-05-08 02:11 | 41.37305 | -107.01579 | 38970 ft | 491 kts | 133° |
| 2026-05-08 02:12 | 41.32722 | -106.94863 | 38952 ft | 490 kts | 133° |
| 2026-05-08 02:12 | 41.28133 | -106.88160 | 38951 ft | 490 kts | 133° |
| 2026-05-08 02:13 | 41.23538 | -106.81462 | 39020 ft | 490 kts | 133° |
| 2026-05-08 02:13 | 41.18928 | -106.74764 | 38880 ft | 493 kts | 133° |
| 2026-05-08 02:14 | 41.16578 | -106.71362 | 37866 ft | 505 kts | 133° |
| 2026-05-08 02:14 | 41.14211 | -106.67932 | 37500 ft | 501 kts | 133° |
| 2026-05-08 02:14 | 41.11859 | -106.64524 | 36987 ft | 500 kts | 133° |
| 2026-05-08 02:14 | 41.09511 | -106.61123 | 36494 ft | 498 kts | 133° |
| 2026-05-08 02:15 | 41.07175 | -106.57740 | 36004 ft | 496 kts | 133° |
| 2026-05-08 02:15 | 41.04852 | -106.54380 | 35499 ft | 494 kts | 133° |
| 2026-05-08 02:15 | 41.02531 | -106.51032 | 34987 ft | 493 kts | 133° |
| 2026-05-08 02:15 | 41.00207 | -106.47687 | 34439 ft | 492 kts | 133° |
| 2026-05-08 02:16 | 40.97897 | -106.44365 | 33915 ft | 490 kts | 133° |
| 2026-05-08 02:16 | 40.95591 | -106.41050 | 33337 ft | 488 kts | 133° |
| 2026-05-08 02:16 | 40.93299 | -106.37756 | 32805 ft | 485 kts | 133° |
| 2026-05-08 02:16 | 40.91024 | -106.34491 | 32293 ft | 482 kts | 133° |
| 2026-05-08 02:17 | 40.88783 | -106.31282 | 31739 ft | 480 kts | 133° |
| 2026-05-08 02:17 | 40.86528 | -106.28049 | 31228 ft | 476 kts | 132° |
| 2026-05-08 02:17 | 40.84518 | -106.24594 | 30730 ft | 472 kts | 122° |
| 2026-05-08 02:17 | 40.82983 | -106.20808 | 30288 ft | 466 kts | 114° |
| 2026-05-08 02:18 | 40.81618 | -106.16943 | 29825 ft | 462 kts | 114° |
| 2026-05-08 02:18 | 40.80267 | -106.13126 | 29406 ft | 455 kts | 114° |
| 2026-05-08 02:18 | 40.78931 | -106.09368 | 28993 ft | 450 kts | 114° |
| 2026-05-08 02:18 | 40.77610 | -106.05658 | 28604 ft | 445 kts | 114° |
| 2026-05-08 02:19 | 40.76301 | -106.01984 | 28211 ft | 440 kts | 114° |
| 2026-05-08 02:19 | 40.74998 | -105.98333 | 27823 ft | 436 kts | 115° |
| 2026-05-08 02:19 | 40.73709 | -105.94728 | 27416 ft | 433 kts | 115° |
| 2026-05-08 02:19 | 40.72428 | -105.91147 | 27022 ft | 429 kts | 115° |
| 2026-05-08 02:20 | 40.71165 | -105.87616 | 26756 ft | 422 kts | 115° |
| 2026-05-08 02:20 | 40.69917 | -105.84132 | 26402 ft | 418 kts | 115° |
| 2026-05-08 02:20 | 40.68680 | -105.80686 | 26096 ft | 413 kts | 115° |
| 2026-05-08 02:20 | 40.67458 | -105.77285 | 25785 ft | 410 kts | 115° |
| 2026-05-08 02:21 | 40.66248 | -105.73922 | 25498 ft | 408 kts | 115° |
| 2026-05-08 02:21 | 40.65035 | -105.70550 | 25196 ft | 407 kts | 115° |
| 2026-05-08 02:21 | 40.63819 | -105.67186 | 24889 ft | 406 kts | 115° |
| 2026-05-08 02:21 | 40.62616 | -105.63869 | 24492 ft | 404 kts | 115° |
| 2026-05-08 02:22 | 40.61408 | -105.60542 | 24153 ft | 400 kts | 115° |
| 2026-05-08 02:22 | 40.60212 | -105.57249 | 23743 ft | 397 kts | 115° |
| 2026-05-08 02:22 | 40.59030 | -105.53989 | 23344 ft | 394 kts | 115° |
| 2026-05-08 02:22 | 40.57883 | -105.50824 | 22982 ft | 390 kts | 115° |
| 2026-05-08 02:23 | 40.56702 | -105.47577 | 22589 ft | 387 kts | 115° |
| 2026-05-08 02:23 | 40.55560 | -105.44435 | 22248 ft | 385 kts | 115° |
| 2026-05-08 02:23 | 40.54394 | -105.41224 | 21876 ft | 383 kts | 115° |
| 2026-05-08 02:23 | 40.53261 | -105.38105 | 21380 ft | 383 kts | 115° |
| 2026-05-08 02:24 | 40.52114 | -105.34955 | 20939 ft | 379 kts | 115° |
| 2026-05-08 02:24 | 40.50976 | -105.31839 | 20470 ft | 379 kts | 115° |
| 2026-05-08 02:24 | 40.49843 | -105.28745 | 20101 ft | 374 kts | 115° |
| 2026-05-08 02:24 | 40.48713 | -105.25669 | 19523 ft | 369 kts | 116° |
| 2026-05-08 02:25 | 40.47606 | -105.22662 | 19178 ft | 362 kts | 116° |
| 2026-05-08 02:25 | 40.46399 | -105.19755 | 19089 ft | 363 kts | 125° |
| 2026-05-08 02:25 | 40.44794 | -105.17211 | 18932 ft | 361 kts | 137° |
| 2026-05-08 02:25 | 40.42852 | -105.15156 | 18760 ft | 357 kts | 147° |
| 2026-05-08 02:26 | 40.40814 | -105.13283 | 18588 ft | 357 kts | 147° |
| 2026-05-08 02:26 | 40.38786 | -105.11403 | 18425 ft | 356 kts | 147° |
| 2026-05-08 02:26 | 40.36769 | -105.09526 | 18195 ft | 355 kts | 147° |
| 2026-05-08 02:26 | 40.34761 | -105.07656 | 18020 ft | 354 kts | 146° |
| 2026-05-08 02:27 | 40.32779 | -105.05811 | 17862 ft | 354 kts | 146° |
| 2026-05-08 02:27 | 40.30747 | -105.03923 | 17690 ft | 353 kts | 146° |
| 2026-05-08 02:27 | 40.28771 | -105.02089 | 17504 ft | 352 kts | 146° |
| 2026-05-08 02:27 | 40.26774 | -105.00238 | 17360 ft | 351 kts | 146° |
| 2026-05-08 02:28 | 40.24778 | -104.98391 | 17110 ft | 350 kts | 146° |
| 2026-05-08 02:28 | 40.22790 | -104.96553 | 16948 ft | 350 kts | 146° |
| 2026-05-08 02:28 | 40.20807 | -104.94724 | 16700 ft | 349 kts | 147° |
| 2026-05-08 02:28 | 40.18822 | -104.92923 | 16437 ft | 347 kts | 150° |
| 2026-05-08 02:29 | 40.16681 | -104.91515 | 16185 ft | 343 kts | 160° |
| 2026-05-08 02:29 | 40.14487 | -104.90290 | 15921 ft | 342 kts | 160° |
| 2026-05-08 02:29 | 40.12301 | -104.89062 | 15669 ft | 341 kts | 160° |
| 2026-05-08 02:29 | 40.10130 | -104.87835 | 15410 ft | 339 kts | 160° |
| 2026-05-08 02:30 | 40.07967 | -104.86611 | 15159 ft | 338 kts | 160° |
| 2026-05-08 02:30 | 40.05811 | -104.85394 | 14958 ft | 337 kts | 160° |
| 2026-05-08 02:30 | 40.03664 | -104.84184 | 14712 ft | 335 kts | 159° |
| 2026-05-08 02:30 | 40.01533 | -104.82971 | 14482 ft | 334 kts | 159° |
| 2026-05-08 02:31 | 39.99408 | -104.81756 | 14248 ft | 333 kts | 159° |
| 2026-05-08 02:31 | 39.97236 | -104.80788 | 14001 ft | 328 kts | 171° |
| 2026-05-08 02:31 | 39.95011 | -104.80445 | 13503 ft | 327 kts | 185° |
| 2026-05-08 02:31 | 39.92724 | -104.80528 | 13207 ft | 320 kts | 186° |
| 2026-05-08 02:32 | 39.90542 | -104.80608 | 12904 ft | 316 kts | 186° |
| 2026-05-08 02:32 | 39.88326 | -104.80675 | 12550 ft | 314 kts | 186° |
| 2026-05-08 02:32 | 39.86182 | -104.80730 | 12244 ft | 310 kts | 185° |
| 2026-05-08 02:32 | 39.84052 | -104.80784 | 12115 ft | 300 kts | 186° |
| 2026-05-08 02:33 | 39.82012 | -104.80826 | 11951 ft | 286 kts | 185° |
| 2026-05-08 02:33 | 39.80087 | -104.80852 | 11802 ft | 269 kts | 186° |
| 2026-05-08 02:33 | 39.78238 | -104.80873 | 11430 ft | 263 kts | 185° |
| 2026-05-08 02:33 | 39.76416 | -104.80894 | 10984 ft | 260 kts | 185° |
| 2026-05-08 02:34 | 39.74607 | -104.80912 | 10533 ft | 259 kts | 185° |
| 2026-05-08 02:34 | 39.72817 | -104.80929 | 10095 ft | 257 kts | 185° |
| 2026-05-08 02:34 | 39.71073 | -104.80941 | 9931 ft | 242 kts | 185° |
| 2026-05-08 02:34 | 39.69455 | -104.80944 | 9811 ft | 222 kts | 185° |
| 2026-05-08 02:35 | 39.67972 | -104.80949 | 9669 ft | 205 kts | 186° |
| 2026-05-08 02:35 | 39.67040 | -104.80955 | 9588 ft | 200 kts | 186° |
| 2026-05-08 02:35 | 39.65661 | -104.80971 | 9464 ft | 197 kts | 186° |
| 2026-05-08 02:35 | 39.64294 | -104.80961 | 9335 ft | 198 kts | 180° |
| 2026-05-08 02:36 | 39.63004 | -104.80304 | 9183 ft | 205 kts | 144° |
| 2026-05-08 02:36 | 39.62192 | -104.78799 | 9129 ft | 207 kts | 107° |
| 2026-05-08 02:36 | 39.62158 | -104.76972 | 9082 ft | 201 kts | 71° |
| 2026-05-08 02:36 | 39.62562 | -104.75244 | 9036 ft | 200 kts | 70° |
| 2026-05-08 02:37 | 39.62894 | -104.73493 | 8998 ft | 200 kts | 72° |
| 2026-05-08 02:37 | 39.63206 | -104.71732 | 8957 ft | 200 kts | 73° |
| 2026-05-08 02:37 | 39.63515 | -104.69978 | 9009 ft | 199 kts | 73° |
| 2026-05-08 02:37 | 39.63927 | -104.68293 | 9031 ft | 196 kts | 57° |
| 2026-05-08 02:38 | 39.64799 | -104.66997 | 9027 ft | 188 kts | 30° |
| 2026-05-08 02:38 | 39.65965 | -104.66324 | 8867 ft | 181 kts | 6° |
| 2026-05-08 02:38 | 39.67202 | -104.66241 | 8558 ft | 178 kts | 355° |
| 2026-05-08 02:38 | 39.68436 | -104.66227 | 8279 ft | 177 kts | 355° |
| 2026-05-08 02:39 | 39.69661 | -104.66212 | 8022 ft | 175 kts | 356° |
| 2026-05-08 02:39 | 39.70877 | -104.66198 | 7787 ft | 174 kts | 355° |
| 2026-05-08 02:39 | 39.72090 | -104.66184 | 7571 ft | 173 kts | 356° |
| 2026-05-08 02:39 | 39.73234 | -104.66167 | 7356 ft | 154 kts | 355° |
| 2026-05-08 02:40 | 39.74273 | -104.66154 | 7166 ft | 145 kts | 356° |
| 2026-05-08 02:40 | 39.75268 | -104.66143 | 6984 ft | 142 kts | 355° |
| 2026-05-08 02:40 | 39.76252 | -104.66132 | 6812 ft | 141 kts | 355° |
| 2026-05-08 02:40 | 39.77225 | -104.66121 | 6613 ft | 140 kts | 356° |
| 2026-05-08 02:41 | 39.78205 | -104.66110 | 6455 ft | 141 kts | 357° |
| 2026-05-08 02:41 | 39.79170 | -104.66098 | 6264 ft | 142 kts | 357° |
| 2026-05-08 02:41 | 39.80098 | -104.66083 | 6079 ft | 143 kts | 358° |
| 2026-05-08 02:41 | 39.81094 | -104.66073 | 5870 ft | 144 kts | 360° |
| 2026-05-08 02:42 | 39.82092 | -104.66062 | 5656 ft | 144 kts | 0° |
| 2026-05-08 02:42 | 39.83090 | -104.66051 | 5457 ft | 142 kts | 0° |
| 2026-05-08 02:42 | 39.83945 | -104.66041 | 5417 ft | 101 kts | 0° |
| 2026-05-08 02:42 | 39.84511 | -104.66038 | 5411 ft | 56 kts | 360° |
| 2026-05-08 02:43 | 39.84763 | -104.66076 | 5407 ft | 17 kts | 342° |
| 2026-05-08 02:43 | 39.84852 | -104.66133 | 5405 ft | 12 kts | 334° |
| 2026-05-08 02:43 | 39.84900 | -104.66163 | 5396 ft | 5 kts | 334° |
| 2026-05-08 02:43 | 39.84962 | -104.66202 | 5396 ft | 15 kts | 336° |
| 2026-05-08 02:44 | 39.85083 | -104.66245 | 5403 ft | 21 kts | 355° |
| 2026-05-08 02:44 | 39.85246 | -104.66247 | 5394 ft | 26 kts | 0° |
| 2026-05-08 02:44 | 39.85431 | -104.66245 | 5399 ft | 25 kts | 0° |
| 2026-05-08 02:44 | 39.85567 | -104.66258 | 5395 ft | 16 kts | 321° |
| 2026-05-08 02:45 | 39.85583 | -104.66425 | 5388 ft | 14 kts | 270° |
| 2026-05-08 02:45 | 39.85635 | -104.66502 | 5387 ft | 15 kts | 1° |
| 2026-05-08 02:45 | 39.85748 | -104.66490 | 5387 ft | 18 kts | 1° |
| 2026-05-08 02:45 | 39.85830 | -104.66512 | 5387 ft | 8 kts | 285° |
| 2026-05-08 02:46 | 39.85834 | -104.66601 | 5387 ft | 9 kts | 271° |
| 2026-05-08 02:46 | 39.85858 | -104.66628 | 5387 ft | 1 kts | 0° |
| 2026-05-08 02:46 | 39.85861 | -104.66628 | 5387 ft | 0 kts | 359° |